createdAt,value
2019-05-22T00:00:23.452Z,39.98
2019-05-22T00:02:53.518Z,40.98
2019-05-22T00:05:34.765Z,42.23
2019-05-22T00:08:05.548Z,37.80
2019-05-22T00:10:34.872Z,39.83
2019-05-22T00:13:06.188Z,36.88
2019-05-22T00:15:38.621Z,37.28
2019-05-22T00:18:07.776Z,40.25
2019-05-22T00:20:37.340Z,35.30
2019-05-22T00:23:10.987Z,34.63
2019-05-22T00:25:41.155Z,38.35
2019-05-22T00:28:10.555Z,36.48
2019-05-22T00:30:41.453Z,35.38
2019-05-22T00:33:11.906Z,35.43
2019-05-22T00:35:42.331Z,38.02
2019-05-22T00:38:11.796Z,36.53
2019-05-22T00:40:42.768Z,37.80
2019-05-22T00:43:14.557Z,40.25
2019-05-22T00:45:46.094Z,35.20
2019-05-22T00:48:16.575Z,37.03
2019-05-22T00:50:53.687Z,40.45
2019-05-22T00:53:43.166Z,36.73
2019-05-22T00:56:16.498Z,38.00
2019-05-22T00:58:49.323Z,36.73
2019-05-22T01:01:22.325Z,38.80
2019-05-22T01:03:52.915Z,41.45
2019-05-22T01:06:22.891Z,37.78
2019-05-22T01:08:52.737Z,38.40
2019-05-22T01:11:24.151Z,37.78
2019-05-22T01:13:54.467Z,39.65
2019-05-22T01:16:24.954Z,38.50
2019-05-22T01:18:54.033Z,40.48
2019-05-22T01:21:24.779Z,39.70
2019-05-22T01:23:55.913Z,39.03
2019-05-22T01:26:26.100Z,40.58
2019-05-22T01:28:56.047Z,42.20
2019-05-22T01:31:33.408Z,42.23
2019-05-22T01:34:06.042Z,42.65
2019-05-22T01:36:36.676Z,41.75
2019-05-22T01:39:13.086Z,39.18
2019-05-22T01:41:44.583Z,32.73
2019-05-22T01:44:14.358Z,37.60
2019-05-22T01:46:45.428Z,49.10
2019-05-22T01:49:14.023Z,39.15
2019-05-22T01:51:44.687Z,41.53
2019-05-22T01:54:13.206Z,39.83
2019-05-22T01:56:43.107Z,40.23
2019-05-22T01:59:12.566Z,43.10
2019-05-22T02:01:42.211Z,40.17
2019-05-22T02:04:14.769Z,42.62
2019-05-22T02:09:33.894Z,39.18
2019-05-22T02:12:28.059Z,38.50
2019-05-22T02:14:57.958Z,37.70
2019-05-22T02:17:34.086Z,38.25
2019-05-22T02:20:06.683Z,39.23
2019-05-22T02:22:39.113Z,40.75
2019-05-22T02:25:08.602Z,45.10
2019-05-22T02:27:39.132Z,40.60
2019-05-22T02:30:09.499Z,40.45
2019-05-22T02:32:39.138Z,38.67
2019-05-22T02:35:09.266Z,46.80
2019-05-22T02:37:39.272Z,37.58
2019-05-22T02:40:16.360Z,38.85
2019-05-22T02:42:46.456Z,42.55
2019-05-22T02:45:16.514Z,41.63
2019-05-22T02:47:46.949Z,38.85
2019-05-22T02:50:16.933Z,44.77
2019-05-22T02:52:47.412Z,41.37
2019-05-22T02:55:16.844Z,36.48
2019-05-22T02:57:46.658Z,38.83
2019-05-22T03:00:16.858Z,42.90
2019-05-22T03:02:50.383Z,42.40
2019-05-22T03:05:21.016Z,43.70
2019-05-22T03:07:50.294Z,45.50
2019-05-22T03:10:20.550Z,40.83
2019-05-22T03:12:51.040Z,42.93
2019-05-22T03:15:23.938Z,43.35
2019-05-22T03:17:59.927Z,40.25
2019-05-22T03:20:29.775Z,41.40
2019-05-22T03:23:04.544Z,44.85
2019-05-22T03:25:34.075Z,50.73
2019-05-22T03:28:04.704Z,49.58
2019-05-22T03:30:37.130Z,50.90
2019-05-22T03:33:08.457Z,47.75
2019-05-22T03:35:44.510Z,48.87
2019-05-22T03:38:13.552Z,48.10
2019-05-22T03:40:42.963Z,45.00
2019-05-22T03:43:27.152Z,52.48
2019-05-22T03:45:59.003Z,52.95
2019-05-22T03:48:30.800Z,47.70
2019-05-22T03:51:08.909Z,50.40
2019-05-22T03:53:38.361Z,52.25
2019-05-22T03:56:07.008Z,47.88
2019-05-22T03:58:36.244Z,51.90
2019-05-22T04:01:06.734Z,48.15
2019-05-22T04:03:36.060Z,47.00
2019-05-22T04:06:06.272Z,45.78
2019-05-22T04:08:37.059Z,56.00
2019-05-22T04:11:08.049Z,44.80
2019-05-22T04:13:36.716Z,40.98
2019-05-22T04:16:08.266Z,44.48
2019-05-22T04:18:39.318Z,43.98
2019-05-22T04:21:07.974Z,40.52
2019-05-22T04:23:38.421Z,41.23
2019-05-22T04:26:09.642Z,43.35
2019-05-22T04:28:51.170Z,42.03
2019-05-22T04:31:20.605Z,38.92
2019-05-22T04:33:49.237Z,40.52
2019-05-22T04:36:18.345Z,40.98
2019-05-22T04:38:46.860Z,38.73
2019-05-22T04:41:16.929Z,40.85
2019-05-22T04:43:45.990Z,39.45
2019-05-22T04:46:14.571Z,39.67
2019-05-22T04:48:46.102Z,36.80
2019-05-22T04:51:24.156Z,35.73
2019-05-22T04:53:54.023Z,40.90
2019-05-22T04:56:23.955Z,37.30
2019-05-22T04:58:53.462Z,37.75
2019-05-22T05:01:22.467Z,40.52
2019-05-22T05:03:51.084Z,40.83
2019-05-22T05:06:21.592Z,37.55
2019-05-22T05:08:51.378Z,38.70
2019-05-22T05:11:20.983Z,40.63
2019-05-22T05:13:49.772Z,38.05
2019-05-22T05:16:18.931Z,35.48
2019-05-22T05:18:47.492Z,36.55
2019-05-22T05:21:16.556Z,34.88
2019-05-22T05:23:45.064Z,34.80
2019-05-22T05:26:14.238Z,37.10
2019-05-22T05:28:43.524Z,35.05
2019-05-22T05:31:13.537Z,33.25
2019-05-22T05:34:04.546Z,31.65
2019-05-22T05:36:33.021Z,37.83
2019-05-22T05:39:01.823Z,31.17
2019-05-22T05:41:31.190Z,31.85
2019-05-22T05:44:00.457Z,32.08
2019-05-22T05:46:29.579Z,29.70
2019-05-22T05:48:58.303Z,26.35
2019-05-22T05:51:29.124Z,29.37
2019-05-22T05:54:03.937Z,30.62
2019-05-22T05:56:33.845Z,26.00
2019-05-22T05:59:05.616Z,28.38
2019-05-22T06:01:40.564Z,29.12
2019-05-22T06:04:10.048Z,24.65
2019-05-22T06:06:44.607Z,27.05
2019-05-22T06:09:21.923Z,26.95
2019-05-22T06:11:56.150Z,26.48
2019-05-22T06:14:29.562Z,25.20
2019-05-22T06:17:36.015Z,23.38
2019-05-22T06:20:11.925Z,25.05
2019-05-22T06:22:42.982Z,24.47
2019-05-22T06:25:14.390Z,23.65
2019-05-22T06:27:49.193Z,25.60
2019-05-22T06:30:21.342Z,26.65
2019-05-22T06:35:40.505Z,26.25
2019-05-22T06:38:27.592Z,24.77
2019-05-22T06:40:56.087Z,29.23
2019-05-22T06:43:31.492Z,26.70
2019-05-22T06:46:00.015Z,30.90
2019-05-22T06:48:28.630Z,25.75
2019-05-22T06:50:58.092Z,27.17
2019-05-22T06:53:26.616Z,29.63
2019-05-22T06:55:55.406Z,31.45
2019-05-22T06:58:23.944Z,29.67
2019-05-22T07:00:52.502Z,26.12
2019-05-22T07:03:22.224Z,28.47
2019-05-22T07:05:51.880Z,28.17
2019-05-22T07:08:20.612Z,25.23
2019-05-22T07:10:49.286Z,28.05
2019-05-22T07:13:20.067Z,27.85
2019-05-22T07:15:48.762Z,27.98
2019-05-22T07:18:19.887Z,22.00
2019-05-22T07:20:50.373Z,24.07
2019-05-22T07:23:21.650Z,20.43
2019-05-22T07:25:52.085Z,22.03
2019-05-22T07:28:22.758Z,26.70
2019-05-22T07:30:52.861Z,26.65
2019-05-22T07:33:23.041Z,24.30
2019-05-22T07:36:08.726Z,23.52
2019-05-22T07:38:23.509Z,24.05
2019-05-22T07:40:53.134Z,20.77
2019-05-22T07:43:22.513Z,20.05
2019-05-22T07:45:52.915Z,20.95
2019-05-22T07:48:24.415Z,21.80
2019-05-22T07:50:55.490Z,21.30
2019-05-22T07:53:26.499Z,21.85
2019-05-22T07:55:57.851Z,20.60
2019-05-22T07:58:29.804Z,16.32
2019-05-22T08:01:02.193Z,17.80
2019-05-22T08:03:33.395Z,17.77
2019-05-22T08:06:03.261Z,16.63
2019-05-22T08:08:33.262Z,21.25
2019-05-22T08:11:04.106Z,20.55
2019-05-22T08:13:33.721Z,20.85
2019-05-22T08:16:03.601Z,20.70
2019-05-22T08:18:34.201Z,19.27
2019-05-22T08:21:03.718Z,22.60
2019-05-22T08:23:33.635Z,20.43
2019-05-22T08:26:02.215Z,19.62
2019-05-22T08:28:32.510Z,21.48
2019-05-22T08:31:03.419Z,22.73
2019-05-22T08:33:35.449Z,18.52
2019-05-22T08:36:05.514Z,23.90
2019-05-22T08:38:36.181Z,19.80
2019-05-22T08:41:08.845Z,16.62
2019-05-22T08:44:03.423Z,21.75
2019-05-22T08:46:10.023Z,20.85
2019-05-22T08:48:47.416Z,23.52
2019-05-22T08:51:12.551Z,21.50
2019-05-22T08:53:47.322Z,24.27
2019-05-22T08:56:13.969Z,21.80
2019-05-22T08:58:44.264Z,20.80
2019-05-22T09:01:13.734Z,19.02
2019-05-22T09:03:42.319Z,22.48
2019-05-22T09:06:11.709Z,20.57
2019-05-22T09:08:40.933Z,20.25
2019-05-22T09:11:09.964Z,24.82
2019-05-22T09:13:39.037Z,23.80
2019-05-22T09:16:08.611Z,20.10
2019-05-22T09:18:38.217Z,18.80
2019-05-22T09:21:07.816Z,20.12
2019-05-22T09:23:37.166Z,16.93
2019-05-22T09:26:07.353Z,20.75
2019-05-22T09:28:36.182Z,20.43
2019-05-22T09:31:05.726Z,21.25
2019-05-22T09:33:36.741Z,25.23
2019-05-22T09:36:05.787Z,26.42
2019-05-22T09:38:34.773Z,21.75
2019-05-22T09:41:03.840Z,22.17
2019-05-22T09:43:32.695Z,24.10
2019-05-22T09:46:02.719Z,21.90
2019-05-22T09:48:32.897Z,21.30
2019-05-22T09:51:01.651Z,23.32
2019-05-22T09:53:31.464Z,20.43
2019-05-22T09:56:00.059Z,24.47
2019-05-22T09:58:29.166Z,22.45
2019-05-22T10:00:57.753Z,19.57
2019-05-22T10:03:26.811Z,23.42
2019-05-22T10:05:55.625Z,22.87
2019-05-22T10:08:25.175Z,20.17
2019-05-22T10:10:53.849Z,27.55
2019-05-22T10:13:22.573Z,26.12
2019-05-22T10:15:51.741Z,19.85
2019-05-22T10:18:20.819Z,21.57
2019-05-22T10:20:49.556Z,21.45
2019-05-22T10:23:19.012Z,20.37
2019-05-22T10:25:47.698Z,20.15
2019-05-22T10:28:17.082Z,19.07
2019-05-22T10:30:45.636Z,19.67
2019-05-22T10:33:14.309Z,18.87
2019-05-22T10:35:43.258Z,20.55
2019-05-22T10:38:12.463Z,19.12
2019-05-22T10:40:41.321Z,20.97
2019-05-22T10:43:09.894Z,21.57
2019-05-22T10:45:38.778Z,23.05
2019-05-22T10:48:07.227Z,21.25
2019-05-22T10:50:36.654Z,21.73
2019-05-22T10:53:05.475Z,22.07
2019-05-22T10:55:35.935Z,19.32
2019-05-22T10:58:05.660Z,19.77
2019-05-22T11:00:34.416Z,20.02
2019-05-22T11:03:03.623Z,23.20
2019-05-22T11:05:33.807Z,19.32
2019-05-22T11:08:02.841Z,21.73
2019-05-22T11:10:31.357Z,20.65
2019-05-22T11:13:00.785Z,20.90
2019-05-22T11:15:30.982Z,16.75
2019-05-22T11:17:59.682Z,15.68
2019-05-22T11:20:29.013Z,19.75
2019-05-22T11:22:57.933Z,18.23
2019-05-22T11:25:27.018Z,15.83
2019-05-22T11:27:55.766Z,16.20
2019-05-22T11:30:24.903Z,14.93
2019-05-22T11:32:53.945Z,15.20
2019-05-22T11:35:23.923Z,14.23
2019-05-22T11:37:52.980Z,15.13
2019-05-22T11:40:22.860Z,16.73
2019-05-22T11:42:53.603Z,14.63
2019-05-22T11:45:23.921Z,18.25
2019-05-22T11:47:53.778Z,15.48
2019-05-22T11:50:23.662Z,16.32
2019-05-22T11:52:52.195Z,20.20
2019-05-22T11:55:21.914Z,18.07
2019-05-22T11:57:52.021Z,17.23
2019-05-22T12:00:23.174Z,16.00
2019-05-22T12:02:52.656Z,17.02
2019-05-22T12:05:22.033Z,14.80
2019-05-22T12:07:51.594Z,17.30
2019-05-22T12:10:22.366Z,18.17
2019-05-22T12:12:53.606Z,22.10
2019-05-22T12:15:26.710Z,19.63
2019-05-22T12:17:55.664Z,22.25
2019-05-22T12:20:26.270Z,21.25
2019-05-22T12:22:55.675Z,20.55
2019-05-22T12:25:25.883Z,17.85
2019-05-22T12:27:55.212Z,18.60
2019-05-22T12:30:25.165Z,16.32
2019-05-22T12:32:54.337Z,14.80
2019-05-22T12:35:24.066Z,18.20
2019-05-22T12:37:53.899Z,18.40
2019-05-22T12:40:22.851Z,17.75
2019-05-22T12:42:53.139Z,13.85
2019-05-22T12:45:28.923Z,19.67
2019-05-22T12:47:59.367Z,19.30
2019-05-22T12:50:31.881Z,20.08
2019-05-22T12:53:03.521Z,22.70
2019-05-22T12:55:32.444Z,23.02
2019-05-22T12:58:02.263Z,22.13
2019-05-22T13:00:31.457Z,17.87
2019-05-22T13:03:02.167Z,18.48
2019-05-22T13:05:32.630Z,20.62
2019-05-22T13:08:02.190Z,19.37
2019-05-22T13:10:31.335Z,20.88
2019-05-22T13:12:59.918Z,16.87
2019-05-22T13:15:28.556Z,22.25
2019-05-22T13:17:59.607Z,24.80
2019-05-22T13:20:42.566Z,16.82
2019-05-22T13:23:04.707Z,15.60
2019-05-22T13:25:36.594Z,19.60
2019-05-22T13:28:07.233Z,15.43
2019-05-22T13:30:39.313Z,14.55
2019-05-22T13:33:11.393Z,20.20
2019-05-22T13:35:41.919Z,15.20
2019-05-22T13:38:13.046Z,13.53
2019-05-22T13:40:43.924Z,16.93
2019-05-22T13:43:12.655Z,19.20
2019-05-22T13:45:41.563Z,16.70
2019-05-22T13:48:10.150Z,15.13
2019-05-22T13:50:39.386Z,19.40
2019-05-22T13:53:11.930Z,17.90
2019-05-22T13:55:41.226Z,14.23
2019-05-22T13:58:11.985Z,14.07
2019-05-22T14:00:41.959Z,14.80
2019-05-22T14:03:11.385Z,15.93
2019-05-22T14:05:42.283Z,12.58
2019-05-22T14:08:12.173Z,10.65
2019-05-22T14:10:41.261Z,15.15
2019-05-22T14:13:09.995Z,15.00
2019-05-22T14:15:50.587Z,12.50
2019-05-22T14:18:09.595Z,12.53
2019-05-22T14:20:38.584Z,12.20
2019-05-22T14:23:07.416Z,11.80
2019-05-22T14:25:36.454Z,11.38
2019-05-22T14:28:06.743Z,15.75
2019-05-22T14:30:35.502Z,9.13
2019-05-22T14:33:05.499Z,12.88
2019-05-22T14:35:47.590Z,12.00
2019-05-22T14:38:09.322Z,14.15
2019-05-22T14:40:38.678Z,10.25
2019-05-22T14:43:08.144Z,11.43
2019-05-22T14:45:37.989Z,11.50
2019-05-22T14:48:06.712Z,12.70
2019-05-22T14:50:35.938Z,15.63
2019-05-22T14:53:04.628Z,12.43
2019-05-22T14:55:35.154Z,13.75
2019-05-22T14:58:05.441Z,11.43
2019-05-22T15:00:34.693Z,10.25
2019-05-22T15:03:03.818Z,10.35
2019-05-22T15:05:32.854Z,10.35
2019-05-22T15:08:01.452Z,12.65
2019-05-22T15:10:31.352Z,9.00
2019-05-22T15:13:00.363Z,8.93
2019-05-22T15:15:29.349Z,14.90
2019-05-22T15:17:58.889Z,12.47
2019-05-22T15:20:32.926Z,12.37
2019-05-22T15:23:01.568Z,8.93
2019-05-22T15:25:30.312Z,8.85
2019-05-22T15:28:00.180Z,12.33
2019-05-22T15:30:29.301Z,8.50
2019-05-22T15:32:57.968Z,8.35
2019-05-22T15:35:26.993Z,12.37
2019-05-22T15:37:55.962Z,7.40
2019-05-22T15:40:25.288Z,10.23
2019-05-22T15:42:54.338Z,10.15
2019-05-22T15:45:30.252Z,9.00
2019-05-22T15:48:02.690Z,8.03
2019-05-22T15:50:34.453Z,9.38
2019-05-22T15:53:13.553Z,8.53
2019-05-22T15:55:42.609Z,10.82
2019-05-22T15:58:13.712Z,7.50
2019-05-22T16:00:44.965Z,10.30
2019-05-22T16:03:16.985Z,8.87
2019-05-22T16:08:16.489Z,11.38
2019-05-22T16:10:48.268Z,9.15
2019-05-22T16:13:21.310Z,8.60
2019-05-22T16:15:54.886Z,12.47
2019-05-22T16:18:29.460Z,10.03
2019-05-22T16:21:02.251Z,9.30
2019-05-22T16:23:33.451Z,8.68
2019-05-22T16:26:05.285Z,8.93
2019-05-22T16:28:36.454Z,13.18
2019-05-22T16:31:08.524Z,11.03
2019-05-22T16:36:08.323Z,9.50
2019-05-22T16:38:39.525Z,8.03
2019-05-22T16:41:08.856Z,8.35
2019-05-22T16:43:48.703Z,12.07
2019-05-22T16:46:11.354Z,9.95
2019-05-22T16:48:42.248Z,11.38
2019-05-22T16:51:13.246Z,7.15
2019-05-22T16:53:43.537Z,8.43
2019-05-22T16:56:12.226Z,11.55
2019-05-22T16:58:41.111Z,10.78
2019-05-22T17:01:10.820Z,7.55
2019-05-22T17:03:40.405Z,14.30
2019-05-22T17:06:09.109Z,10.32
2019-05-22T17:08:37.614Z,8.90
2019-05-22T17:11:07.766Z,8.23
2019-05-22T17:13:36.858Z,10.78
2019-05-22T17:16:07.047Z,9.33
2019-05-22T17:18:46.880Z,12.93
2019-05-22T17:21:07.962Z,12.15
2019-05-22T17:23:36.534Z,11.03
2019-05-22T17:26:05.818Z,12.40
2019-05-22T17:28:34.714Z,11.00
2019-05-22T17:31:04.294Z,7.85
2019-05-22T17:33:34.197Z,10.13
2019-05-22T17:36:05.724Z,9.85
2019-05-22T17:38:34.343Z,8.55
2019-05-22T17:41:03.925Z,10.50
2019-05-22T17:43:33.925Z,7.72
2019-05-22T17:46:04.227Z,9.15
2019-05-22T17:48:34.940Z,9.98
2019-05-22T17:51:05.099Z,9.28
2019-05-22T17:53:36.031Z,8.20
2019-05-22T17:56:05.590Z,7.75
2019-05-22T17:58:34.167Z,10.48
2019-05-22T18:01:04.750Z,8.25
2019-05-22T18:03:33.752Z,8.45
2019-05-22T18:06:02.853Z,8.60
2019-05-22T18:08:32.371Z,13.40
2019-05-22T18:11:03.887Z,11.38
2019-05-22T18:13:34.576Z,10.00
2019-05-22T18:16:04.752Z,7.78
2019-05-22T18:18:33.810Z,9.85
2019-05-22T18:21:02.365Z,10.82
2019-05-22T18:23:32.192Z,11.08
2019-05-22T18:26:00.694Z,7.80
2019-05-22T18:28:29.340Z,6.53
2019-05-22T18:30:58.148Z,9.75
2019-05-22T18:33:26.711Z,12.10
2019-05-22T18:35:55.516Z,7.50
2019-05-22T18:38:24.578Z,11.25
2019-05-22T18:40:53.145Z,7.60
2019-05-22T18:43:23.093Z,8.95
2019-05-22T18:45:52.321Z,10.98
2019-05-22T18:48:21.018Z,12.63
2019-05-22T18:50:50.515Z,11.18
2019-05-22T18:53:19.036Z,11.85
2019-05-22T18:55:47.710Z,11.08
2019-05-22T18:58:16.416Z,8.33
2019-05-22T19:00:45.564Z,9.53
2019-05-22T19:03:14.153Z,9.88
2019-05-22T19:05:43.977Z,9.33
2019-05-22T19:08:12.633Z,7.53
2019-05-22T19:10:41.366Z,9.78
2019-05-22T19:13:09.919Z,8.70
2019-05-22T19:15:38.903Z,9.95
2019-05-22T19:18:07.501Z,8.25
2019-05-22T19:20:36.245Z,10.93
2019-05-22T19:23:05.302Z,8.30
2019-05-22T19:25:34.899Z,9.63
2019-05-22T19:28:04.319Z,8.68
2019-05-22T19:30:33.519Z,9.10
2019-05-22T19:33:02.365Z,9.33
2019-05-22T19:35:30.960Z,8.88
2019-05-22T19:38:01.140Z,8.25
2019-05-22T19:40:29.935Z,9.85
2019-05-22T19:42:58.750Z,10.48
2019-05-22T19:45:30.871Z,12.73
2019-05-22T19:47:58.832Z,9.43
2019-05-22T19:50:29.072Z,10.18
2019-05-22T19:52:57.659Z,9.78
2019-05-22T19:55:28.472Z,7.62
2019-05-22T19:57:58.238Z,7.62
2019-05-22T20:00:28.194Z,7.60
2019-05-22T20:03:00.625Z,11.08
2019-05-22T20:05:30.212Z,7.00
2019-05-22T20:07:59.412Z,9.85
2019-05-22T20:10:28.143Z,15.72
2019-05-22T20:12:57.355Z,11.18
2019-05-22T20:15:26.336Z,7.15
2019-05-22T20:17:55.496Z,11.20
2019-05-22T20:20:26.025Z,9.90
2019-05-22T20:22:55.250Z,9.85
2019-05-22T20:25:25.815Z,10.03
2019-05-22T20:27:56.709Z,9.20
2019-05-22T20:30:27.091Z,10.23
2019-05-22T20:32:56.396Z,13.35
2019-05-22T20:35:25.128Z,9.60
2019-05-22T20:37:54.136Z,13.38
2019-05-22T20:40:24.022Z,7.80
2019-05-22T20:42:53.705Z,7.42
2019-05-22T20:45:24.739Z,7.95
2019-05-22T20:48:09.758Z,9.60
2019-05-22T20:50:39.490Z,9.30
2019-05-22T20:53:11.096Z,8.13
2019-05-22T20:55:42.641Z,10.35
2019-05-22T20:58:14.302Z,10.72
2019-05-22T21:00:43.586Z,8.10
2019-05-22T21:03:13.449Z,7.97
2019-05-22T21:05:43.541Z,10.18
2019-05-22T21:08:13.629Z,8.83
2019-05-22T21:10:44.587Z,10.32
2019-05-22T21:13:15.060Z,9.48
2019-05-22T21:15:44.888Z,10.80
2019-05-22T21:18:14.593Z,11.95
2019-05-22T21:20:54.289Z,9.80
2019-05-22T21:23:16.863Z,8.63
2019-05-22T21:25:45.783Z,9.38
2019-05-22T21:28:14.539Z,10.48
2019-05-22T21:30:43.597Z,9.33
2019-05-22T21:33:14.936Z,9.98
2019-05-22T21:35:44.261Z,9.28
2019-05-22T21:38:13.888Z,12.63
2019-05-22T21:40:42.855Z,8.13
2019-05-22T21:43:12.463Z,8.95
2019-05-22T21:45:42.155Z,10.50
2019-05-22T21:48:11.314Z,12.40
2019-05-22T21:50:40.967Z,7.60
2019-05-22T21:53:30.775Z,9.50
2019-05-22T21:56:04.972Z,7.33
2019-05-22T21:58:30.475Z,10.10
2019-05-22T22:01:06.297Z,11.08
2019-05-22T22:03:51.654Z,11.15
2019-05-22T22:06:21.381Z,12.40
2019-05-22T22:08:50.320Z,9.95
2019-05-22T22:11:20.749Z,7.87
2019-05-22T22:13:57.672Z,9.38
2019-05-22T22:16:29.270Z,8.65
2019-05-22T22:18:57.956Z,10.95
2019-05-22T22:21:27.282Z,10.78
2019-05-22T22:23:56.333Z,8.73
2019-05-22T22:26:26.768Z,13.32
2019-05-22T22:28:56.115Z,12.25
2019-05-22T22:31:26.205Z,8.70
2019-05-22T22:33:57.856Z,11.70
2019-05-22T22:36:27.649Z,7.35
2019-05-22T22:38:57.049Z,7.90
2019-05-22T22:41:26.554Z,8.90
2019-05-22T22:43:58.681Z,7.85
2019-05-22T22:48:59.968Z,10.63
2019-05-22T22:51:30.198Z,9.70
2019-05-22T22:53:59.185Z,11.48
2019-05-22T22:56:29.188Z,11.08
2019-05-22T22:58:58.408Z,9.30
2019-05-22T23:01:31.130Z,8.18
2019-05-22T23:04:02.142Z,9.73
2019-05-22T23:06:31.674Z,6.95
2019-05-22T23:09:00.818Z,10.10
2019-05-22T23:11:30.862Z,8.33
2019-05-22T23:14:00.938Z,10.45
2019-05-22T23:16:53.422Z,7.15
2019-05-22T23:19:34.515Z,10.70
2019-05-22T23:22:03.326Z,11.03
2019-05-22T23:24:41.713Z,8.75
2019-05-22T23:27:13.614Z,7.62
2019-05-22T23:29:42.370Z,10.15
2019-05-22T23:32:12.458Z,8.03
2019-05-22T23:34:41.473Z,13.15
2019-05-22T23:37:10.895Z,10.35
2019-05-22T23:39:39.734Z,9.20
2019-05-22T23:42:12.704Z,9.30
2019-05-22T23:44:42.128Z,11.50
2019-05-22T23:47:11.440Z,8.50
2019-05-22T23:49:41.672Z,7.60
2019-05-22T23:52:12.306Z,8.85
2019-05-22T23:54:41.620Z,7.25
2019-05-22T23:57:11.008Z,11.68
2019-05-22T23:59:42.056Z,10.35
